Kobuk Valley National Park, AK

2:19 PM AKDT op 24 juli 2016 (GMT -0800)
Baker Memorial | | Change Station

Hoogte 151 ft 66.98 °N, 160.44 °W | Updated 18 minutes ago

Clear
Helder
67 °F
Voelt als 67 °F
N
5
Wind Variabel Wind van OZO

Vandaag
Hoog -- | Laag -- °F
--% Kans op neerslag
Gisteren
Hoog -- | Laag -- °F
Precip. -- inches
Druk 29.86 inches
Zicht 10.0 mijlen
Wolken Helder
Dauwpunt 42 °F
Vochtigheid 40%
Neerslag 0.00 inches
Dikte sneeuw Niet beschikbaar.
4:27 AM 1:03 AM
Afnemende maan, 72% visible
METAR PAIK 242201Z AUTO 12004KT 10SM CLR 19/06 A2974 RMK AO2 SLP109 T01940056
Druk 29.86 inches
Zicht 10.0 mijlen
Wolken Helder
Dauwpunt 42 °F
Vochtigheid 40%
Neerslag 0.00 inches
Dikte sneeuw Niet beschikbaar.
4:27 AM 1:03 AM
Afnemende maan, 72% visible
METAR PAIK 242201Z AUTO 12004KT 10SM CLR 19/06 A2974 RMK AO2 SLP109 T01940056

10-Day Weather Forecast

Almanac

Astronomie

Jul. 24, 2016 Opkomst Ondergang
Werkelijke tijd
Burgerlijke schemering
Nautische schemering
Astronomische schemering
Maan
Golflengte van het zichtbare licht
Daglengte
Tomorrow will be .
, % of the Moon is Illuminated

Extremen vandaag

State Highs State Lows

Community

WunderPhotos

Upload Photos

1,927,202 foto’s ge-upload!

WunderBlog® & News

Nearby

Luchtkwaliteit

  Luchtkwaliteit LK-index Verontreinigende stof
Not available.

Dikte sneeuw

Station Depth Geometrische hoogte

Aardbevingen

Stad Distance Mag. Time & Date
Minimum magnitude displayed is 2.5.

Watertemperatuur langs de kust

Plaats Temperatuur

Stations

Nabije weerstations

Locatie station Temp. Gevoelstemperatuur Dauwpunt Vochtigheid Wind Precip. Hoogte Geactualiseerd Type
                   

Watches & Warnings

There are currently no watches in effect.